Terminal Aerodrome Forecast
Issued by NWS

Home | Current Version | Previous Version | Text Only | Print | Product List | Glossary On
Versions: 1 2 3 4 5 6 7 8 9 10 11 12 13 14 15
000
FTUS43 KMQT 022332
TAFIWD
TAF
KIWD 022332Z 0300/0324 31003KT P6SM SKC
     FM030800 22006KT P6SM SKC
     FM031400 25011G17KT P6SM VCSH OVC150
     FM031800 28012G20KT P6SM -SHRA OVC080
     FM032000 31010G16KT P6SM VCSH BKN070
     FM032100 32009KT P6SM VCSH SCT070
      AMD LTD TO CLD VIS AND WIND=

USA.gov is the U.S. government's official web portal to all federal, state and local government web resources and services.